Latest Weather Observations for Lake Macquarie - Cooranbong

IDN60801

Issued at 9:52 am EST Monday 23 April 2018 (issued every 10 minutes, with the page automatically refreshed every 10 minutes)

About weather observations | Map of weather stations | Latest weather observations for NSW | Other Formats
Station Details ID: 061412 Name: LAKE MACQUARIE AWS Lat: -33.09 Lon: 151.46 Height: 6.0 m
Data from the previous 72 hours. | See also: Recent months at Lake Macquarie - Cooranbong
Date/Time
EST
Temp
°C
App
Temp
°C
Dew
Point
°C
Rel
Hum
%
Delta-T
°C
Wind Press
QNH
hPa
Press
MSL
hPa
Rain since
9am
mm
Dir  Spd
km/h
Gust
km/h
Spd
kts
Gust
kts
23/09:30am 21.4 22.8 17.4 78 2.5 SW 6 11 3 6 1020.9 1020.9 0.0
23/09:00am 20.1 22.8 17.7 86 1.5 CALM 0 4 0 2 1021.0 1021.0 0.0
23/08:30am 17.6 19.9 16.8 95 0.5 CALM 0 0 0 0 1021.1 1021.1 0.0
23/08:00am 15.0 16.5 14.7 98 0.2 CALM 0 0 0 0 1020.9 1020.9 0.0
23/07:30am 12.6 13.3 12.3 98 0.2 CALM 0 0 0 0 1020.9 1020.9 0.0
23/07:00am 11.0 11.2 10.7 98 0.2 CALM 0 0 0 0 1020.5 1020.5 0.0
23/06:30am 10.9 11.1 10.4 97 0.3 CALM 0 0 0 0 1020.3 1020.3 0.0
23/06:00am 11.2 11.5 10.9 98 0.2 CALM 0 0 0 0 1020.1 1020.1 0.0
23/05:30am 11.3 11.6 10.8 97 0.3 CALM 0 0 0 0 1019.9 1019.9 0.0
23/05:00am 11.4 11.7 10.9 97 0.3 CALM 0 0 0 0 1020.0 1020.0 0.0
23/04:30am 11.7 12.1 11.2 97 0.3 CALM 0 0 0 0 1020.1 1020.1 0.0
23/04:00am 11.9 12.3 11.4 97 0.3 CALM 0 0 0 0 1020.0 1020.0 0.0
23/03:30am 12.0 12.5 11.5 97 0.3 CALM 0 0 0 0 1019.9 1019.9 0.0
23/03:00am 12.4 13.0 11.9 97 0.3 CALM 0 0 0 0 1020.2 1020.2 0.0
23/02:30am 12.4 13.0 11.8 96 0.3 CALM 0 0 0 0 1020.5 1020.5 0.0
23/02:00am 12.7 13.4 12.2 97 0.3 CALM 0 0 0 0 1020.6 1020.6 0.0
23/01:30am 13.0 13.8 12.5 97 0.3 CALM 0 0 0 0 1020.6 1020.6 0.0
23/01:00am 13.1 13.9 12.5 96 0.3 CALM 0 0 0 0 1020.9 1020.9 0.0
23/12:30am 13.5 14.4 12.9 96 0.3 CALM 0 0 0 0 1021.1 1021.1 0.0
23/12:00am 13.8 14.8 13.3 97 0.3 CALM 0 0 0 0 1021.4 1021.4 0.0
 
Date/Time
EST
Temp
°C
App
Temp
°C
Dew
Point
°C
Rel
Hum
%
Delta-T
°C
Wind Press
QNH
hPa
Press
MSL
hPa
Rain since
9am
mm
Dir  Spd
km/h
Gust
km/h
Spd
kts
Gust
kts
22/11:30pm 14.0 15.1 13.4 96 0.3 CALM 0 0 0 0 1021.6 1021.6 0.0
22/11:00pm 14.2 15.3 13.6 96 0.3 CALM 0 0 0 0 1021.6 1021.6 0.0
22/10:30pm 14.7 15.9 13.9 95 0.4 CALM 0 0 0 0 1021.7 1021.7 0.0
22/10:00pm 15.0 16.3 14.2 95 0.5 CALM 0 0 0 0 1021.9 1021.9 0.0
22/09:30pm 15.3 16.7 14.5 95 0.5 CALM 0 0 0 0 1021.7 1021.7 0.0
22/09:00pm 15.8 17.4 14.8 94 0.6 CALM 0 0 0 0 1021.7 1021.7 0.0
22/08:30pm 16.3 18.0 15.3 94 0.6 CALM 0 0 0 0 1021.7 1021.7 0.0
22/08:00pm 16.5 18.2 15.2 92 0.8 CALM 0 0 0 0 1021.5 1021.5 0.0
22/07:30pm 17.3 19.2 15.8 91 0.9 CALM 0 0 0 0 1021.5 1021.5 0.0
22/07:00pm 17.6 19.1 15.8 89 1.1 NNE 2 6 1 3 1021.5 1021.5 0.0
22/06:30pm 18.6 20.7 16.2 86 1.4 CALM 0 0 0 0 1021.6 1021.6 0.0
22/06:00pm 19.6 21.3 16.1 80 2.1 SW 2 4 1 2 1021.5 1021.5 0.0
22/05:30pm 20.4 22.1 16.2 77 2.5 SSW 2 4 1 2 1021.5 1021.5 0.0
22/05:00pm 21.2 22.6 16.4 74 2.9 SSE 4 9 2 5 1021.4 1021.4 0.0
22/04:30pm 21.8 22.8 16.3 71 3.3 SSE 6 7 3 4 1021.3 1021.3 0.0
22/04:00pm 22.6 23.3 16.2 67 3.9 ESE 7 11 4 6 1021.1 1021.1 0.0
22/03:30pm 22.1 22.7 15.7 67 3.8 S 7 17 4 9 1021.2 1021.2 0.0
22/03:00pm 22.1 22.5 15.2 65 4.1 SE 7 15 4 8 1021.3 1021.3 0.0
22/02:30pm 22.4 22.3 15.0 63 4.4 S 9 17 5 9 1021.2 1021.2 0.0
22/02:00pm 23.1 23.2 15.4 62 4.6 SE 9 15 5 8 1021.1 1021.1 0.0
22/01:30pm 22.9 22.4 15.0 61 4.7 SE 11 19 6 10 1021.2 1021.2 0.0
22/01:00pm 22.0 22.2 14.6 63 4.3 SE 7 15 4 8 1021.5 1021.5 0.0
22/12:30pm 22.0 22.0 15.1 65 4.1 SE 9 15 5 8 1021.9 1021.9 0.0
22/12:00pm 21.9 22.3 15.3 66 3.9 SE 7 15 4 8 1022.2 1022.2 0.0
22/11:30am 21.7 22.2 15.1 66 3.9 S 6 13 3 7 1022.6 1022.6 0.0
22/11:00am 22.3 23.0 16.1 68 3.7 SSE 7 13 4 7 1022.8 1022.8 0.0
22/10:30am 21.7 21.5 14.8 65 4.1 SSE 9 17 5 9 1023.1 1023.1 0.0
22/10:00am 21.5 22.0 15.6 69 3.5 SSW 7 13 4 7 1023.2 1023.2 0.0
22/09:30am 20.5 20.9 15.3 72 3.1 SSW 7 11 4 6 1023.4 1023.4 0.0
22/09:00am 19.3 19.6 15.0 76 2.5 SW 7 15 4 8 1023.5 1023.5 2.8
22/08:30am 17.6 18.9 16.1 91 0.9 SSW 4 7 2 4 1023.5 1023.5 2.8
22/08:00am 15.2 16.8 14.9 98 0.2 CALM 0 0 0 0 1023.4 1023.4 2.8
22/07:30am 13.3 14.3 13.1 99 0.1 CALM 0 0 0 0 1023.3 1023.3 2.8
22/07:00am 11.6 12.0 11.3 98 0.2 CALM 0 0 0 0 1022.9 1022.9 2.8
22/06:30am 11.6 12.0 11.3 98 0.2 CALM 0 0 0 0 1022.7 1022.7 2.8
22/06:00am 11.9 12.3 11.4 97 0.3 CALM 0 0 0 0 1022.4 1022.4 2.8
22/05:30am 12.2 12.8 11.9 98 0.2 CALM 0 0 0 0 1022.3 1022.3 2.8
22/05:00am 12.5 13.1 12.0 97 0.3 CALM 0 0 0 0 1022.3 1022.3 2.8
22/04:30am 12.8 13.5 12.3 97 0.3 CALM 0 0 0 0 1022.2 1022.2 2.8
22/04:00am 13.1 13.9 12.6 97 0.3 CALM 0 0 0 0 1022.0 1022.0 2.8
22/03:30am 13.3 14.2 12.8 97 0.3 CALM 0 0 0 0 1022.0 1022.0 2.8
22/03:00am 13.8 14.8 13.3 97 0.3 CALM 0 0 0 0 1022.0 1022.0 2.8
22/02:30am 14.1 15.2 13.5 96 0.3 CALM 0 0 0 0 1022.2 1022.2 2.8
22/02:00am 14.6 15.9 14.0 96 0.3 CALM 0 0 0 0 1022.2 1022.2 2.8
22/01:30am 15.0 16.4 14.5 97 0.3 CALM 0 0 0 0 1022.5 1022.5 2.8
22/01:00am 15.2 16.7 14.6 96 0.3 CALM 0 0 0 0 1022.5 1022.5 2.8
22/12:30am 15.3 16.8 14.7 96 0.3 CALM 0 0 0 0 1022.6 1022.6 2.8
22/12:00am 15.3 16.8 14.7 96 0.3 CALM 0 0 0 0 1022.7 1022.7 2.8
 
Date/Time
EST
Temp
°C
App
Temp
°C
Dew
Point
°C
Rel
Hum
%
Delta-T
°C
Wind Press
QNH
hPa
Press
MSL
hPa
Rain since
9am
mm
Dir  Spd
km/h
Gust
km/h
Spd
kts
Gust
kts
21/11:30pm 15.5 17.1 14.9 96 0.3 CALM 0 0 0 0 1022.8 1022.8 2.8
21/11:00pm 15.6 17.1 14.6 94 0.6 CALM 0 0 0 0 1022.9 1022.9 2.8
21/10:30pm 16.1 17.8 15.3 95 0.5 CALM 0 0 0 0 1023.0 1023.0 2.8
21/10:00pm 16.3 18.1 15.5 95 0.5 CALM 0 0 0 0 1023.2 1023.2 2.8
21/09:30pm 16.2 17.9 15.2 94 0.6 CALM 0 0 0 0 1023.3 1023.3 2.8
21/09:00pm 16.4 18.1 15.3 93 0.6 CALM 0 0 0 0 1023.1 1023.1 2.8
21/08:30pm 16.9 18.8 15.8 93 0.6 CALM 0 0 0 0 1022.9 1022.9 2.8
21/08:00pm 17.0 18.8 15.5 91 0.9 CALM 0 0 0 0 1022.8 1022.8 2.8
21/07:30pm 17.1 18.9 15.6 91 0.9 CALM 0 0 0 0 1022.6 1022.6 2.8
21/07:00pm 16.8 18.5 15.2 90 0.9 CALM 0 0 0 0 1022.3 1022.3 2.8
21/06:30pm 17.4 19.1 15.2 87 1.3 CALM 0 0 0 0 1022.1 1022.1 2.8
21/06:00pm 18.4 20.2 15.5 83 1.7 CALM 0 0 0 0 1022.0 1022.0 2.8
21/05:30pm 19.5 20.9 15.4 77 2.4 SSE 2 6 1 3 1021.7 1021.7 2.8
21/05:00pm 20.5 21.2 15.5 73 3.0 SE 6 11 3 6 1021.6 1021.6 2.8
21/04:30pm 21.3 21.4 15.4 69 3.5 SE 9 17 5 9 1021.4 1021.4 2.8
21/04:00pm 21.0 21.3 14.9 68 3.6 SE 7 13 4 7 1021.3 1021.3 2.8
21/03:30pm 21.4 21.9 15.0 67 3.8 SE 6 11 3 6 1021.2 1021.2 2.8
21/03:00pm 22.1 22.7 15.7 67 3.8 SE 7 15 4 8 1021.2 1021.2 2.8
21/02:30pm 22.1 21.8 15.5 66 3.9 SE 11 26 6 14 1021.1 1021.1 2.8
21/02:00pm 22.4 22.5 15.5 65 4.1 ESE 9 17 5 9 1021.1 1021.1 2.8
21/01:30pm 21.7 21.7 15.1 66 3.9 SE 9 19 5 10 1021.2 1021.2 2.8
21/01:00pm 22.5 22.8 16.1 67 3.9 SE 9 17 5 9 1021.5 1021.5 2.8
21/12:30pm 22.5 23.4 16.5 69 3.7 SSE 7 20 4 11 1021.8 1021.8 2.8
21/12:00pm 21.7 23.8 17.1 75 2.8 ESE 2 11 1 6 1022.3 1022.3 2.8
21/11:30am 19.4 22.2 17.9 91 0.9 CALM 0 4 0 2 1022.9 1022.9 2.8
21/11:00am 18.6 20.6 16.9 90 1.0 SW 2 6 1 3 1023.4 1023.4 2.6
21/10:30am 21.0 22.1 16.6 76 2.7 SSE 6 13 3 7 1023.4 1023.4 0.0
21/10:00am 22.2 23.8 16.9 72 3.2 ESE 4 11 2 6 1023.3 1023.3 0.0
21/09:30am 20.8 22.4 17.0 79 2.3 SSW 4 6 2 3 1023.5 1023.5 0.0
21/09:00am 20.5 21.8 17.1 81 2.1 S 6 11 3 6 1023.5 1023.5 0.0
21/08:30am 20.0 21.1 16.6 81 2.1 SSW 6 11 3 6 1023.5 1023.5 0.0
21/08:00am 19.8 21.6 17.4 86 1.5 SSW 4 13 2 7 1023.2 1023.2 0.0
21/07:30am 18.3 20.4 17.3 94 0.6 SSW 2 6 1 3 1022.8 1022.8 0.0
21/07:00am 16.7 18.4 16.1 96 0.4 ESE 2 6 1 3 1022.4 1022.4 0.0
21/06:30am 16.4 18.1 15.3 93 0.6 CALM 0 2 0 1 1022.1 1022.1 0.0
21/06:00am 17.1 18.3 16.0 93 0.6 SSW 4 7 2 4 1021.9 1021.9 0.0
21/05:30am 17.4 18.8 16.4 94 0.6 WSW 4 6 2 3 1021.8 1021.8 0.0
21/05:00am 17.1 18.8 16.1 94 0.6 SSW 2 4 1 2 1021.6 1021.6 0.0
21/04:30am 17.5 19.5 16.9 96 0.4 SSW 2 2 1 1 1021.3 1021.3 0.0
21/04:00am 17.7 19.8 17.1 96 0.4 S 2 6 1 3 1021.1 1021.1 0.0
21/03:30am 17.7 19.5 17.4 98 0.2 S 4 6 2 3 1021.0 1021.0 0.0
21/03:00am 16.4 18.4 15.9 97 0.3 CALM 0 0 0 0 1021.0 1021.0 0.0
21/02:30am 16.3 18.2 15.8 97 0.3 CALM 0 0 0 0 1020.9 1020.9 0.0
21/02:00am 16.1 17.9 15.6 97 0.3 CALM 0 0 0 0 1020.9 1020.9 0.0
21/01:30am 16.4 18.3 15.8 96 0.4 CALM 0 0 0 0 1021.1 1021.1 0.0
21/01:00am 16.6 18.2 16.0 96 0.4 W 2 4 1 2 1021.3 1021.3 0.0
21/12:30am 17.1 19.3 16.5 96 0.4 CALM 0 0 0 0 1021.2 1021.2 0.0
21/12:00am 17.4 19.7 16.8 96 0.4 CALM 0 0 0 0 1021.3 1021.3 0.0
 
Date/Time
EST
Temp
°C
App
Temp
°C
Dew
Point
°C
Rel
Hum
%
Delta-T
°C
Wind Press
QNH
hPa
Press
MSL
hPa
Rain since
9am
mm
Dir  Spd
km/h
Gust
km/h
Spd
kts
Gust
kts
20/11:30pm 17.4 19.6 16.6 95 0.5 CALM 0 0 0 0 1021.4 1021.4 0.0
20/11:00pm 18.4 20.3 17.6 95 0.5 WSW 4 6 2 3 1021.4 1021.4 0.0
20/10:30pm 18.7 21.0 17.7 94 0.6 SW 2 4 1 2 1021.5 1021.5 0.0
20/10:00pm 18.6 21.2 17.4 93 0.7 CALM 0 0 0 0 1021.5 1021.5 0.0
20/09:30pm 19.2 21.6 17.9 92 0.8 SW 2 7 1 4 1021.4 1021.4 0.0
20/09:00pm 18.8 20.9 18.0 95 0.5 WSW 4 6 2 3 1021.4 1021.4 0.0
20/08:30pm 18.4 20.8 17.1 92 0.8 CALM 0 0 0 0 1021.1 1021.1 0.0
20/08:00pm 19.8 21.9 18.1 90 1.0 WSW 4 6 2 3 1021.1 1021.1 0.0
20/07:30pm 19.9 22.8 18.2 90 1.1 CALM 0 0 0 0 1020.8 1020.8 0.0
20/07:00pm 20.2 22.7 18.1 88 1.3 S 2 4 1 2 1020.6 1020.6 0.0
20/06:30pm 20.6 23.2 18.4 87 1.4 SSW 2 6 1 3 1020.3 1020.3 0.0
20/06:00pm 20.6 22.9 18.5 88 1.3 S 4 9 2 5 1020.0 1020.0 0.0
20/05:30pm 20.6 22.4 18.2 86 1.5 S 6 11 3 6 1019.7 1019.7 0.0
20/05:00pm 21.1 22.7 17.9 82 2.0 SSE 6 9 3 5 1019.4 1019.4 0.0
20/04:30pm 21.8 23.3 18.0 79 2.4 SSE 7 11 4 6 1019.1 1019.1 0.0
20/04:00pm 22.9 24.5 18.2 75 2.9 S 7 13 4 7 1018.9 1018.9 0.0
20/03:30pm 23.4 24.5 17.2 68 3.8 SSE 7 17 4 9 1019.0 1019.0 0.0
20/03:00pm 23.7 24.2 17.4 68 3.9 SE 11 20 6 11 1018.9 1018.9 0.0
20/02:30pm 24.4 25.7 17.6 66 4.2 ESE 7 15 4 8 1018.8 1018.8 0.0
20/02:00pm 25.0 26.1 15.6 56 5.7 S 4 9 2 5 1018.8 1018.8 0.0
20/01:30pm 24.8 26.3 17.5 64 4.6 S 6 9 3 5 1018.9 1018.9 0.0
20/01:00pm 24.4 25.9 17.6 66 4.2 S 6 9 3 5 1019.2 1019.2 0.0
20/12:30pm 23.9 25.2 17.6 68 3.9 ESE 7 17 4 9 1019.5 1019.5 0.0
20/12:00pm 23.4 24.4 16.9 67 4.0 SE 7 13 4 7 1020.0 1020.0 0.0
20/11:30am 23.0 23.8 16.3 66 4.1 SSE 7 15 4 8 1020.4 1020.4 0.0
20/11:00am 23.0 23.8 16.3 66 4.1 SE 7 13 4 7 1020.8 1020.8 0.0
20/10:30am 22.0 22.7 15.6 67 3.8 WSW 6 11 3 6 1020.9 1020.9 0.0
20/10:00am 21.8 22.8 15.4 67 3.8 S 4 6 2 3 1021.1 1021.1 0.0

Other Formats:

Comma delimited format used in spreadsheet applications
http://www.bom.gov.au/fwo/IDN60801/IDN60801.95767.axf

JavaScript Object Notation format (JSON) in row-major order
http://www.bom.gov.au/fwo/IDN60801/IDN60801.95767.json